Cottonville, North Carolina
Current Conditions -  °F | °C
As of 6:55 PM on Friday 31 Oct 2014 (Local Time) from KVUJ Reporting Station
Overcast Overcast  
Wind Chill: 55°   Ceiling: 6000
Heat Index: 55°   Visibility: 10mi
Dew Point: 47°   Wind: 0mph
Humidity: 72%   Direction: NA
Pressure: 29.84"   Gusts: NA
Location:  35.2152°N, 80.1663°W
Report Text: KVUJ 312255Z AUTO 00000KT 10SM SCT050 OVC060 13/08 A2984 RMK AO2 LTG DSNT E T01300081
Loading
Personal Weather Stations






























Interactive Weather Map
Tropical Storm Tracking
New forecast layout! Learn more

10-Day Weather Forecast

Advertisements
Track Severe Weather on mobile